createdAt,value
2023-03-11T00:00:50.679Z,178.05
2023-03-11T00:01:50.692Z,204.76
2023-03-11T00:04:50.613Z,285.69
2023-03-11T00:05:50.589Z,246.72
2023-03-11T00:06:50.606Z,245.87
2023-03-11T00:11:52.375Z,25.00
2023-03-11T00:12:52.185Z,25.00
2023-03-11T00:13:52.336Z,25.00
2023-03-11T00:22:51.523Z,25.00
2023-03-11T00:23:51.572Z,25.00
2023-03-11T00:24:51.343Z,25.00
2023-03-11T00:25:51.293Z,25.00
2023-03-11T00:26:51.273Z,25.00
2023-03-11T01:24:46.162Z,25.00
2023-03-11T01:51:42.023Z,25.00
2023-03-11T01:52:41.744Z,25.00
2023-03-11T01:54:41.719Z,25.00
2023-03-11T01:55:41.666Z,25.00
2023-03-11T02:18:41.784Z,25.00
2023-03-11T02:19:41.592Z,25.00
2023-03-11T02:20:41.746Z,25.00
2023-03-11T02:21:41.537Z,25.00
2023-03-11T02:22:41.514Z,25.00
2023-03-11T02:23:41.458Z,25.26
2023-03-11T03:09:22.119Z,25.00
2023-03-11T03:16:21.359Z,25.00
2023-03-11T03:17:21.427Z,25.00
2023-03-11T03:18:21.131Z,25.00
2023-03-11T03:19:21.150Z,25.00
2023-03-11T03:20:21.135Z,25.00
2023-03-11T03:21:21.141Z,13.54
2023-03-11T03:22:21.148Z,0.00
2023-03-11T03:23:21.084Z,41.32
2023-03-11T03:25:41.405Z,25.00
2023-03-11T03:26:41.201Z,25.00
2023-03-11T03:27:41.383Z,25.00
2023-03-11T03:28:41.155Z,25.00
2023-03-11T03:29:41.085Z,25.00
2023-03-11T03:30:41.140Z,26.32
2023-03-11T03:31:41.115Z,35.32
2023-03-11T03:32:41.201Z,30.49
2023-03-11T03:33:41.163Z,46.05
2023-03-11T03:34:41.067Z,67.20
2023-03-11T03:35:41.069Z,38.79
2023-03-11T03:36:41.073Z,32.04
2023-03-11T03:37:41.084Z,53.36
2023-03-11T03:38:41.052Z,59.86
2023-03-11T03:42:20.949Z,25.00
2023-03-11T03:44:40.515Z,25.00
2023-03-11T03:45:40.551Z,25.00
2023-03-11T03:56:16.257Z,25.00
2023-03-11T03:57:16.264Z,25.00
2023-03-11T03:58:15.964Z,25.00
2023-03-11T04:00:35.824Z,25.00
2023-03-11T04:01:35.815Z,25.00
2023-03-11T04:02:35.710Z,25.00
2023-03-11T04:03:35.615Z,25.00
2023-03-11T04:04:35.584Z,25.00
2023-03-11T04:05:35.594Z,28.21
2023-03-11T04:06:35.609Z,12.72
2023-03-11T04:07:35.604Z,8.20
2023-03-11T04:08:35.562Z,28.46
2023-03-11T04:09:35.567Z,25.40
2023-03-11T04:10:35.582Z,25.63
2023-03-11T04:11:35.581Z,25.78
2023-03-11T04:12:35.538Z,29.07
2023-03-11T04:13:35.553Z,34.41
2023-03-11T04:14:35.513Z,28.97
2023-03-11T04:15:35.506Z,3.51
2023-03-11T04:16:35.535Z,19.50
2023-03-11T04:17:35.533Z,46.06
2023-03-11T04:18:35.471Z,25.41
2023-03-11T04:19:35.485Z,18.07
2023-03-11T04:20:35.492Z,1.62
2023-03-11T04:22:35.462Z,9.36
2023-03-11T04:23:35.476Z,25.74
2023-03-11T04:24:35.476Z,31.47
2023-03-11T04:25:35.424Z,25.97
2023-03-11T04:26:35.419Z,0.00
2023-03-11T04:27:35.429Z,22.57
2023-03-11T04:28:35.395Z,44.90
2023-03-11T04:29:35.413Z,46.68
2023-03-11T04:30:35.409Z,19.64
2023-03-11T04:31:35.445Z,60.51
2023-03-11T04:32:35.434Z,31.06
2023-03-11T04:33:35.415Z,17.15
2023-03-11T04:34:35.374Z,25.31
2023-03-11T04:36:55.546Z,25.00
2023-03-11T04:37:55.762Z,25.00
2023-03-11T04:38:55.477Z,25.00
2023-03-11T04:39:55.465Z,25.00
2023-03-11T04:40:55.454Z,25.00
2023-03-11T04:41:55.443Z,39.05
2023-03-11T04:42:55.459Z,53.20
2023-03-11T04:43:55.424Z,55.96
2023-03-11T04:44:55.418Z,82.86
2023-03-11T04:47:15.739Z,25.00
2023-03-11T04:48:15.539Z,25.00
2023-03-11T04:49:15.755Z,25.00
2023-03-11T04:50:15.495Z,25.00
2023-03-11T04:51:15.446Z,25.00
2023-03-11T04:52:15.514Z,25.95
2023-03-11T04:57:13.638Z,25.00
2023-03-11T05:05:54.125Z,25.00
2023-03-11T05:08:14.016Z,25.00
2023-03-11T05:09:13.962Z,25.00
2023-03-11T05:10:13.776Z,25.00
2023-03-11T05:11:13.712Z,25.00
2023-03-11T05:12:13.738Z,25.00
2023-03-11T05:13:13.711Z,11.00
2023-03-11T05:14:13.730Z,0.00
2023-03-11T05:15:13.697Z,0.00
2023-03-11T05:16:13.711Z,21.44
2023-03-11T05:17:13.697Z,25.00
2023-03-11T05:31:33.751Z,45.73
2023-03-11T05:33:53.656Z,25.00
2023-03-11T05:34:53.908Z,25.00
2023-03-11T05:36:08.964Z,25.00
2023-03-11T05:36:53.466Z,25.00
2023-03-11T05:37:53.761Z,25.00
2023-03-11T05:38:53.427Z,25.00
2023-03-11T05:39:53.484Z,25.00
2023-03-11T05:40:56.117Z,25.00
2023-03-11T05:47:33.753Z,25.00
2023-03-11T05:49:53.854Z,25.00
2023-03-11T05:50:53.633Z,25.00
2023-03-11T05:51:54.039Z,25.00
2023-03-11T05:52:53.603Z,25.00
2023-03-11T05:53:53.585Z,25.00
2023-03-11T05:54:53.591Z,25.00
2023-03-11T05:55:53.565Z,25.00
2023-03-11T05:58:14.017Z,25.00
2023-03-11T05:59:16.268Z,25.00
2023-03-11T06:01:13.648Z,25.00
2023-03-11T06:02:13.611Z,25.00
2023-03-11T06:03:13.613Z,25.00
2023-03-11T06:04:13.764Z,25.00
2023-03-11T06:05:14.120Z,45.49
2023-03-11T06:06:13.589Z,39.91
2023-03-11T06:07:13.583Z,10.00
2023-03-11T06:08:13.532Z,25.00
2023-03-11T06:09:13.557Z,37.23
2023-03-11T06:10:13.626Z,43.89
2023-03-11T06:11:13.573Z,81.78
2023-03-11T06:12:13.582Z,70.18
2023-03-11T06:13:13.532Z,35.45
2023-03-11T06:14:13.537Z,32.96
2023-03-11T06:15:13.604Z,79.15
2023-03-11T06:16:13.567Z,118.77
2023-03-11T06:17:13.538Z,129.42
2023-03-11T06:18:13.571Z,56.73
2023-03-11T06:19:13.504Z,25.00
2023-03-11T06:20:13.521Z,3.40
2023-03-11T06:21:13.492Z,18.18
2023-03-11T06:22:13.492Z,25.67
2023-03-11T06:23:13.489Z,25.52
2023-03-11T06:24:13.507Z,32.62
2023-03-11T06:25:13.458Z,60.32
2023-03-11T06:26:13.476Z,111.17
2023-03-11T06:27:13.469Z,115.12
2023-03-11T06:28:13.438Z,181.86
2023-03-11T06:29:13.436Z,200.37
2023-03-11T06:30:13.445Z,163.51
2023-03-11T06:31:13.465Z,159.59
2023-03-11T06:32:13.533Z,108.13
2023-03-11T06:34:13.494Z,41.64
2023-03-11T06:35:13.726Z,0.00
2023-03-11T06:38:53.552Z,25.00
2023-03-11T06:39:53.195Z,25.00
2023-03-11T06:40:53.398Z,25.00
2023-03-11T06:41:53.089Z,25.00
2023-03-11T06:42:53.116Z,25.00
2023-03-11T06:43:53.122Z,39.91
2023-03-11T06:44:53.085Z,84.80
2023-03-11T06:45:53.082Z,28.02
2023-03-11T06:46:53.899Z,63.88
2023-03-11T06:47:53.088Z,39.62
2023-03-11T06:48:53.026Z,25.10
2023-03-11T06:49:53.053Z,42.11
2023-03-11T06:50:53.047Z,69.44
2023-03-11T06:51:53.059Z,87.10
2023-03-11T06:52:52.997Z,67.34
2023-03-11T06:53:53.028Z,74.70
2023-03-11T06:54:53.032Z,68.62
2023-03-11T06:55:52.980Z,18.20
2023-03-11T06:56:52.982Z,27.81
2023-03-11T06:57:53.019Z,77.66
2023-03-11T06:58:52.977Z,110.82
2023-03-11T06:59:52.977Z,125.17
2023-03-11T07:00:53.026Z,151.16
2023-03-11T07:01:52.986Z,132.94
2023-03-11T07:02:52.928Z,130.77
2023-03-11T07:03:53.070Z,153.02
2023-03-11T07:04:52.934Z,191.12
2023-03-11T07:05:52.951Z,174.39
2023-03-11T07:06:52.909Z,95.85
2023-03-11T07:07:52.942Z,139.42
2023-03-11T07:08:52.939Z,161.76
2023-03-11T07:09:52.883Z,179.62
2023-03-11T07:10:52.982Z,219.56
2023-03-11T07:11:53.125Z,206.94
2023-03-11T07:18:52.088Z,25.00
2023-03-11T07:19:51.991Z,25.00
2023-03-11T07:20:51.954Z,25.00
2023-03-11T07:57:26.648Z,25.00
2023-03-11T07:59:25.994Z,25.00
2023-03-11T08:00:25.974Z,25.00
2023-03-11T08:01:25.962Z,25.00
2023-03-11T08:02:25.933Z,25.00
2023-03-11T08:03:25.979Z,25.00
2023-03-11T08:04:25.988Z,0.00
2023-03-11T08:05:25.933Z,0.00
2023-03-11T08:06:25.909Z,0.00
2023-03-11T08:07:25.928Z,0.00
2023-03-11T08:08:25.924Z,0.00
2023-03-11T08:09:25.923Z,0.00
2023-03-11T08:10:25.872Z,0.00
2023-03-11T08:11:25.874Z,0.00
2023-03-11T08:12:25.876Z,0.00
2023-03-11T08:17:25.103Z,25.00
2023-03-11T08:19:44.945Z,25.00
2023-03-11T08:20:44.970Z,25.00
2023-03-11T08:21:44.741Z,25.00
2023-03-11T08:22:57.236Z,25.00
2023-03-11T08:23:45.705Z,25.00
2023-03-11T08:24:44.673Z,25.00
2023-03-11T08:25:44.683Z,25.00
2023-03-11T08:26:44.669Z,25.00
2023-03-11T08:27:44.666Z,25.00
2023-03-11T08:28:44.686Z,24.41
2023-03-11T08:29:44.634Z,18.04
2023-03-11T08:30:44.706Z,35.93
2023-03-11T08:31:44.643Z,37.13
2023-03-11T08:32:44.724Z,4.58
2023-03-11T08:33:44.638Z,22.26
2023-03-11T08:34:44.679Z,18.19
2023-03-11T08:35:44.609Z,58.74
2023-03-11T08:36:44.591Z,82.11
2023-03-11T08:37:44.662Z,36.00
2023-03-11T08:38:44.645Z,0.00
2023-03-11T08:39:44.624Z,20.44
2023-03-11T08:40:44.653Z,31.88
2023-03-11T08:41:44.694Z,25.57
2023-03-11T08:50:24.885Z,25.00
2023-03-11T08:51:24.669Z,25.00
2023-03-11T08:52:24.901Z,25.00
2023-03-11T08:53:24.594Z,25.00
2023-03-11T08:54:24.592Z,25.00
2023-03-11T08:55:24.581Z,33.47
2023-03-11T08:56:24.554Z,43.72
2023-03-11T08:57:24.529Z,90.68
2023-03-11T08:58:24.550Z,43.82
2023-03-11T08:59:24.560Z,77.93
2023-03-11T09:00:24.514Z,101.16
2023-03-11T09:01:24.526Z,108.57
2023-03-11T09:02:24.574Z,81.65
2023-03-11T09:03:24.553Z,32.67
2023-03-11T09:04:24.487Z,0.00
2023-03-11T09:05:24.506Z,9.44
2023-03-11T09:06:24.505Z,13.77
2023-03-11T09:07:24.531Z,35.13
2023-03-11T09:08:24.513Z,108.48
2023-03-11T09:09:24.518Z,48.97
2023-03-11T09:10:24.486Z,71.48
2023-03-11T09:11:24.506Z,54.57
2023-03-11T09:12:24.540Z,40.00
2023-03-11T09:13:24.437Z,65.81
2023-03-11T09:14:24.415Z,25.00
2023-03-11T09:15:24.491Z,25.00
2023-03-11T09:16:24.494Z,26.97
2023-03-11T09:17:24.425Z,17.55
2023-03-11T09:18:24.442Z,58.51
2023-03-11T09:19:24.435Z,83.63
2023-03-11T09:20:24.413Z,128.12
2023-03-11T09:21:24.422Z,196.23
2023-03-11T09:22:24.395Z,191.85
2023-03-11T09:23:24.422Z,132.84
2023-03-11T09:24:24.364Z,106.20
2023-03-11T09:25:24.385Z,110.80
2023-03-11T09:26:24.389Z,128.37
2023-03-11T09:27:24.335Z,161.09
2023-03-11T09:28:24.354Z,73.26
2023-03-11T09:29:24.345Z,49.98
2023-03-11T09:30:24.352Z,79.14
2023-03-11T09:31:24.344Z,13.99
2023-03-11T09:32:24.315Z,40.25
2023-03-11T09:33:24.330Z,55.28
2023-03-11T09:34:24.353Z,71.11
2023-03-11T09:35:24.320Z,60.04
2023-03-11T09:36:24.299Z,94.78
2023-03-11T09:37:24.276Z,113.21
2023-03-11T09:38:24.276Z,101.20
2023-03-11T09:39:24.277Z,83.30
2023-03-11T09:40:24.345Z,75.14
2023-03-11T09:41:24.300Z,123.89
2023-03-11T09:43:24.411Z,69.91
2023-03-11T09:44:24.666Z,79.07
2023-03-11T09:45:24.324Z,57.90
2023-03-11T09:46:24.557Z,68.15
2023-03-11T09:47:24.320Z,80.76
2023-03-11T09:48:24.309Z,24.24
2023-03-11T09:49:25.389Z,43.42
2023-03-11T09:50:24.310Z,18.26
2023-03-11T09:51:24.380Z,43.77
2023-03-11T09:53:24.268Z,100.25
2023-03-11T09:54:24.432Z,62.99
2023-03-11T09:55:24.213Z,70.74
2023-03-11T09:56:24.229Z,87.51
2023-03-11T09:57:24.527Z,88.92
2023-03-11T09:58:24.177Z,100.90
2023-03-11T09:59:24.140Z,85.10
2023-03-11T10:00:24.140Z,88.23
2023-03-11T10:01:24.167Z,92.08
2023-03-11T10:02:24.247Z,31.64
2023-03-11T10:03:24.158Z,71.81
2023-03-11T10:04:24.136Z,23.25
2023-03-11T10:05:24.070Z,44.51
2023-03-11T10:06:24.126Z,40.06
2023-03-11T10:07:24.098Z,68.21
2023-03-11T10:08:24.112Z,67.22
2023-03-11T10:09:24.050Z,73.44
2023-03-11T10:10:24.087Z,65.04
2023-03-11T10:11:24.046Z,118.09
2023-03-11T10:14:02.731Z,25.00
2023-03-11T10:15:02.621Z,25.00
2023-03-11T10:16:02.763Z,25.00
2023-03-11T10:17:02.497Z,25.00
2023-03-11T10:18:02.498Z,25.00
2023-03-11T10:19:02.513Z,25.00
2023-03-11T10:20:02.524Z,12.76
2023-03-11T10:21:02.483Z,24.90
2023-03-11T10:22:02.472Z,34.05
2023-03-11T10:23:02.502Z,53.27
2023-03-11T10:24:02.576Z,17.95
2023-03-11T10:26:48.599Z,25.00
2023-03-11T10:27:48.390Z,25.00
2023-03-11T10:30:07.832Z,25.00
2023-03-11T10:31:07.757Z,25.00
2023-03-11T10:32:07.678Z,25.00
2023-03-11T10:33:07.672Z,25.00
2023-03-11T10:34:07.692Z,25.00
2023-03-11T10:35:07.661Z,20.86
2023-03-11T10:36:07.660Z,54.45
2023-03-11T10:39:07.589Z,66.38
2023-03-11T10:40:07.561Z,66.13
2023-03-11T10:41:07.618Z,63.55
2023-03-11T10:42:07.570Z,31.79
2023-03-11T10:43:07.587Z,10.95
2023-03-11T10:45:07.557Z,139.64
2023-03-11T10:46:07.606Z,151.10
2023-03-11T10:47:07.564Z,99.06
2023-03-11T10:48:07.617Z,95.19
2023-03-11T10:49:07.520Z,116.11
2023-03-11T10:50:07.528Z,143.00
2023-03-11T10:51:07.542Z,164.25
2023-03-11T10:52:07.520Z,160.00
2023-03-11T10:53:07.553Z,38.08
2023-03-11T10:56:07.501Z,136.22
2023-03-11T10:57:07.477Z,170.32
2023-03-11T10:58:07.524Z,190.36
2023-03-11T10:59:07.499Z,115.55
2023-03-11T12:40:19.787Z,25.00
2023-03-11T12:50:59.402Z,25.00
2023-03-11T12:51:59.222Z,25.00
2023-03-11T12:52:58.925Z,25.00
2023-03-11T13:01:38.187Z,25.00
2023-03-11T13:02:37.988Z,25.00
2023-03-11T13:03:37.859Z,25.00
2023-03-11T13:04:37.870Z,25.00
2023-03-11T13:05:37.881Z,25.00
2023-03-11T13:06:37.840Z,33.09
2023-03-11T13:07:37.861Z,94.44
2023-03-11T13:08:37.835Z,17.63
2023-03-11T13:09:37.824Z,0.00
2023-03-11T13:10:37.854Z,27.54
2023-03-11T13:11:37.847Z,34.00
2023-03-11T13:12:37.829Z,36.77
2023-03-11T13:13:37.806Z,27.11
2023-03-11T13:14:37.969Z,28.15
2023-03-11T13:15:38.012Z,46.92
2023-03-11T13:16:38.879Z,32.80
2023-03-11T13:17:37.806Z,62.28
2023-03-11T13:18:37.845Z,35.01
2023-03-11T13:19:37.818Z,35.98
2023-03-11T13:20:37.828Z,52.45
2023-03-11T13:21:37.806Z,81.31
2023-03-11T13:22:37.826Z,72.75
2023-03-11T13:23:37.842Z,95.05
2023-03-11T13:24:38.061Z,141.44
2023-03-11T13:25:37.978Z,127.00
2023-03-11T13:27:57.753Z,25.00
2023-03-11T13:37:37.576Z,25.00
2023-03-11T13:38:37.361Z,25.00
2023-03-11T13:39:37.042Z,25.00
2023-03-11T13:40:37.452Z,25.00
2023-03-11T13:41:37.554Z,25.00
2023-03-11T13:42:36.988Z,8.56
2023-03-11T13:43:37.597Z,45.46
2023-03-11T13:44:36.975Z,44.48
2023-03-11T13:45:37.013Z,94.58
2023-03-11T13:46:36.978Z,155.01
2023-03-11T13:47:36.982Z,114.77
2023-03-11T13:48:37.620Z,87.49
2023-03-11T13:49:36.933Z,56.97
2023-03-11T13:50:36.940Z,100.94
2023-03-11T13:51:36.965Z,154.78
2023-03-11T13:52:36.914Z,55.31
2023-03-11T13:53:36.915Z,73.33
2023-03-11T13:54:36.961Z,58.84
2023-03-11T13:55:36.956Z,131.87
2023-03-11T13:56:36.873Z,46.53
2023-03-11T13:57:36.897Z,39.74
2023-03-11T13:58:36.888Z,46.59
2023-03-11T13:59:36.857Z,87.12
2023-03-11T14:01:56.467Z,25.00
2023-03-11T14:02:56.349Z,25.00
2023-03-11T14:05:16.577Z,25.00
2023-03-11T14:07:35.664Z,25.00
2023-03-11T14:08:35.633Z,25.00
2023-03-11T14:10:35.233Z,25.00
2023-03-11T14:11:35.314Z,25.00
2023-03-11T14:12:35.210Z,25.00
2023-03-11T14:13:35.353Z,25.00
2023-03-11T14:14:35.223Z,25.00
2023-03-11T14:15:35.169Z,30.60
2023-03-11T14:16:35.287Z,60.37
2023-03-11T14:17:35.185Z,58.88
2023-03-11T14:18:35.198Z,25.90
2023-03-11T14:19:35.210Z,19.85
2023-03-11T14:20:35.180Z,59.68
2023-03-11T14:21:35.220Z,50.47
2023-03-11T14:22:35.138Z,25.49
2023-03-11T14:23:35.127Z,71.51
2023-03-11T14:24:35.121Z,37.36
2023-03-11T14:25:35.112Z,41.94
2023-03-11T14:26:35.198Z,25.00
2023-03-11T14:27:35.118Z,21.17
2023-03-11T14:28:35.109Z,63.13
2023-03-11T14:29:35.141Z,45.75
2023-03-11T14:30:35.129Z,63.08
2023-03-11T14:31:35.167Z,37.53
2023-03-11T14:32:35.148Z,18.24
2023-03-11T14:33:35.093Z,23.13
2023-03-11T14:34:35.098Z,32.84
2023-03-11T14:35:35.059Z,91.79
2023-03-11T14:36:35.056Z,112.14
2023-03-11T14:37:35.067Z,106.58
2023-03-11T14:38:35.022Z,109.15
2023-03-11T14:39:35.037Z,153.53
2023-03-11T14:40:35.033Z,155.21
2023-03-11T14:41:35.041Z,196.47
2023-03-11T14:42:35.018Z,131.71
2023-03-11T14:43:35.001Z,92.56
2023-03-11T14:45:55.190Z,25.00
2023-03-11T14:46:54.952Z,25.00
2023-03-11T14:47:55.088Z,25.00
2023-03-11T14:48:54.875Z,25.00
2023-03-11T14:49:54.874Z,25.00
2023-03-11T14:52:15.137Z,25.00
2023-03-11T14:53:14.959Z,25.00
2023-03-11T14:55:34.835Z,25.00
2023-03-11T14:57:34.872Z,25.00
2023-03-11T14:58:34.732Z,25.00
2023-03-11T14:59:34.669Z,25.00
2023-03-11T15:00:34.665Z,25.00
2023-03-11T15:01:34.750Z,25.00
2023-03-11T15:02:34.639Z,24.36
2023-03-11T15:03:34.653Z,9.25
2023-03-11T15:04:34.653Z,0.00
2023-03-11T15:05:34.596Z,20.43
2023-03-11T15:06:34.645Z,38.51
2023-03-11T15:07:34.712Z,38.46
2023-03-11T15:08:34.612Z,21.96
2023-03-11T15:09:34.619Z,3.38
2023-03-11T15:10:34.591Z,23.12
2023-03-11T15:11:34.589Z,23.19
2023-03-11T15:31:15.000Z,25.00
2023-03-11T15:32:14.736Z,25.00
2023-03-11T15:33:14.820Z,25.00
2023-03-11T15:34:14.617Z,25.00
2023-03-11T15:35:14.627Z,25.00
2023-03-11T15:36:14.599Z,63.81
2023-03-11T15:37:14.598Z,78.64
2023-03-11T15:38:14.560Z,20.27
2023-03-11T15:39:14.625Z,0.00
2023-03-11T15:40:14.573Z,0.00
2023-03-11T15:41:14.571Z,0.00
2023-03-11T15:42:14.598Z,0.00
2023-03-11T15:43:14.549Z,2.20
2023-03-11T15:44:14.589Z,0.00
2023-03-11T15:45:14.557Z,0.00
2023-03-11T15:56:54.033Z,25.00
2023-03-11T16:08:30.085Z,25.00
2023-03-11T16:12:07.710Z,25.00
2023-03-11T16:13:07.408Z,25.00
2023-03-11T16:14:07.696Z,25.00
2023-03-11T16:15:07.412Z,25.00
2023-03-11T16:16:07.428Z,25.00
2023-03-11T16:17:07.454Z,17.41
2023-03-11T16:18:07.469Z,25.00
2023-03-11T16:19:07.444Z,46.57
2023-03-11T16:20:07.543Z,43.42
2023-03-11T16:36:07.694Z,25.00
2023-03-11T16:38:28.458Z,25.00
2023-03-11T16:39:28.181Z,25.00
2023-03-11T16:40:28.279Z,25.00
2023-03-11T16:52:06.754Z,25.00
2023-03-11T16:53:06.619Z,25.00
2023-03-11T16:54:06.203Z,25.00
2023-03-11T16:55:06.342Z,25.00
2023-03-11T16:56:06.537Z,25.00
2023-03-11T16:57:06.368Z,35.61
2023-03-11T16:58:06.851Z,10.71
2023-03-11T16:59:06.203Z,35.55
2023-03-11T17:00:06.161Z,95.07
2023-03-11T17:01:06.309Z,123.09
2023-03-11T17:02:06.218Z,97.56
2023-03-11T17:03:06.143Z,120.59
2023-03-11T17:04:06.103Z,36.08
2023-03-11T17:05:06.177Z,19.90
2023-03-11T17:06:06.145Z,0.00
2023-03-11T17:07:06.088Z,0.00
2023-03-11T17:08:06.119Z,38.02
2023-03-11T17:09:06.159Z,62.43
2023-03-11T17:10:06.122Z,42.32
2023-03-11T17:11:06.115Z,89.69
2023-03-11T17:12:06.138Z,125.29
2023-03-11T17:13:06.081Z,113.83
2023-03-11T17:14:15.867Z,111.05
2023-03-11T17:15:07.060Z,111.33
2023-03-11T17:16:06.050Z,111.54
2023-03-11T17:17:06.071Z,113.94
2023-03-11T17:18:06.006Z,137.42
2023-03-11T17:19:06.048Z,134.09
2023-03-11T17:20:06.036Z,85.19
2023-03-11T17:21:06.036Z,89.16
2023-03-11T17:22:06.022Z,107.14
2023-03-11T17:23:06.008Z,148.24
2023-03-11T17:24:06.010Z,139.88
2023-03-11T17:25:06.016Z,131.74
2023-03-11T17:26:06.268Z,84.46
2023-03-11T17:27:06.030Z,67.93
2023-03-11T17:28:06.109Z,24.48
2023-03-11T17:29:06.098Z,42.68
2023-03-11T17:30:06.196Z,129.01
2023-03-11T17:31:06.178Z,162.69
2023-03-11T17:32:06.175Z,63.40
2023-03-11T17:33:06.237Z,20.31
2023-03-11T17:34:06.236Z,54.97
2023-03-11T17:35:06.296Z,57.02
2023-03-11T17:36:06.292Z,70.54
2023-03-11T17:37:06.296Z,31.32
2023-03-11T17:38:06.311Z,35.20
2023-03-11T17:39:06.369Z,26.31
2023-03-11T17:40:06.468Z,25.82
2023-03-11T17:41:06.424Z,39.62
2023-03-11T17:42:06.412Z,74.41
2023-03-11T17:43:06.526Z,71.39
2023-03-11T17:44:06.529Z,96.14
2023-03-11T17:45:06.617Z,149.70
2023-03-11T17:46:06.556Z,60.96
2023-03-11T17:47:06.673Z,25.00
2023-03-11T17:48:06.631Z,31.47
2023-03-11T17:49:06.822Z,25.62
2023-03-11T17:50:06.771Z,35.16
2023-03-11T17:51:06.782Z,0.00
2023-03-11T17:52:06.772Z,29.02
2023-03-11T17:53:06.848Z,45.57
2023-03-11T17:54:06.793Z,128.27
2023-03-11T17:55:06.977Z,197.71
2023-03-11T17:56:06.952Z,115.10
2023-03-11T17:57:07.005Z,132.40
2023-03-11T17:58:06.998Z,133.54
2023-03-11T17:59:07.052Z,101.73
2023-03-11T18:00:07.139Z,130.19
2023-03-11T18:01:07.200Z,136.67
2023-03-11T18:02:07.208Z,84.01
2023-03-11T18:03:07.186Z,23.99
2023-03-11T18:04:07.264Z,48.99
2023-03-11T18:05:07.313Z,70.01
2023-03-11T18:06:07.356Z,33.59
2023-03-11T18:07:07.372Z,25.00
2023-03-11T18:08:07.379Z,26.11
2023-03-11T18:09:07.412Z,90.22
2023-03-11T18:10:07.498Z,146.02
2023-03-11T18:11:07.507Z,86.54
2023-03-11T18:12:07.548Z,70.70
2023-03-11T18:13:07.557Z,135.79
2023-03-11T18:14:07.597Z,63.06
2023-03-11T18:15:07.661Z,77.56
2023-03-11T18:16:07.701Z,25.55
2023-03-11T18:17:07.687Z,0.00
2023-03-11T18:18:07.748Z,26.10
2023-03-11T18:19:07.730Z,49.52
2023-03-11T18:20:07.745Z,103.97
2023-03-11T18:21:07.811Z,151.38
2023-03-11T18:22:07.819Z,123.06
2023-03-11T18:23:07.882Z,116.57
2023-03-11T18:24:07.825Z,122.64
2023-03-11T18:25:07.844Z,108.80
2023-03-11T18:26:08.105Z,100.60
2023-03-11T18:27:07.838Z,107.55
2023-03-11T18:28:07.860Z,102.62
2023-03-11T18:29:07.904Z,107.73
2023-03-11T18:30:07.922Z,113.57
2023-03-11T18:31:07.920Z,114.33
2023-03-11T18:32:08.068Z,83.08
2023-03-11T18:33:08.022Z,90.75
2023-03-11T18:34:08.018Z,116.24
2023-03-11T18:35:08.058Z,112.65
2023-03-11T18:36:08.081Z,130.42
2023-03-11T18:37:08.139Z,161.15
2023-03-11T18:38:08.161Z,244.24
2023-03-11T18:39:08.239Z,250.64
2023-03-11T18:40:24.572Z,317.08
2023-03-11T19:13:40.676Z,162.95
2023-03-11T19:15:28.196Z,176.99
2023-03-11T19:16:28.218Z,202.28
2023-03-11T19:17:28.170Z,228.02
2023-03-11T19:18:28.144Z,239.92
2023-03-11T19:31:28.030Z,25.00
2023-03-11T19:32:27.945Z,25.00
2023-03-11T19:33:44.062Z,25.00
2023-03-11T19:34:27.806Z,25.00
2023-03-11T19:35:27.968Z,25.00
2023-03-11T19:36:27.745Z,25.00
2023-03-11T19:37:27.734Z,25.00
2023-03-11T19:38:43.990Z,25.00
2023-03-11T19:39:27.779Z,25.00
2023-03-11T19:40:28.030Z,25.00
2023-03-11T19:41:27.723Z,25.00
2023-03-11T19:42:27.673Z,25.00
2023-03-11T20:02:07.867Z,25.00
2023-03-11T20:03:07.874Z,25.00
2023-03-11T20:04:07.649Z,25.00
2023-03-11T20:07:27.851Z,25.00
2023-03-11T20:08:27.757Z,25.00
2023-03-11T20:09:28.716Z,25.00
